Time;durP1;ratioP1;P1;durP2;ratioP2;P2;SDS_P1;SDS_P2;PMS_P1;PMS_P2;Temp;Humidity;BMP_temperature;BMP_pressure;BME280_temperature;BME280_humidity;BME280_pressure;Samples;Min_cycle;Max_cycle;Signal;HPM_P1;HPM_P2
2021/06/10 00:00:57;;;;;;;4.30;2.90;;;;;;;;;;743231;186;1015029;-74
2021/06/10 00:03:23;;;;;;;3.67;2.73;;;;;;;;;;741607;186;1110045;-75
2021/06/10 00:05:49;;;;;;;4.40;2.80;;;;;;;;;;749646;184;815252;-74
2021/06/10 00:08:15;;;;;;;4.37;3.07;;;;;;;;;;739942;186;903373;-74
2021/06/10 00:10:41;;;;;;;5.50;3.40;;;;;;;;;;740907;186;816115;-75
2021/06/10 00:13:06;;;;;;;4.53;3.10;;;;;;;;;;748175;186;919214;-73
2021/06/10 00:15:32;;;;;;;4.50;2.80;;;;;;;;;;748430;186;918916;-73
2021/06/10 00:17:58;;;;;;;4.33;3.20;;;;;;;;;;743133;186;917852;-74
2021/06/10 00:20:24;;;;;;;4.10;2.63;;;;;;;;;;750713;186;918660;-73
2021/06/10 00:22:51;;;;;;;6.20;3.80;;;;;;;;;;748649;186;925875;-74
2021/06/10 00:25:16;;;;;;;4.05;3.10;;;;;;;;;;745603;186;917005;-74
2021/06/10 00:27:41;;;;;;;9.30;3.30;;;;;;;;;;751655;186;915609;-73
2021/06/10 00:30:08;;;;;;;6.10;3.28;;;;;;;;;;727671;190;919339;-74
2021/06/10 00:32:33;;;;;;;4.13;3.17;;;;;;;;;;741072;186;1015714;-74
2021/06/10 00:34:59;;;;;;;5.40;3.30;;;;;;;;;;741751;186;915634;-74
2021/06/10 00:37:25;;;;;;;5.47;3.45;;;;;;;;;;740924;187;919522;-74
2021/06/10 00:39:51;;;;;;;4.80;3.23;;;;;;;;;;741708;187;957450;-74
2021/06/10 00:42:17;;;;;;;5.20;3.33;;;;;;;;;;743627;187;818007;-75
2021/06/10 00:44:43;;;;;;;3.77;2.83;;;;;;;;;;746541;187;820904;-74
2021/06/10 00:47:08;;;;;;;5.40;3.20;;;;;;;;;;747031;187;918199;-73
2021/06/10 00:49:34;;;;;;;4.13;3.30;;;;;;;;;;745504;187;924975;-74
2021/06/10 00:52:00;;;;;;;5.70;3.10;;;;;;;;;;742933;187;918002;-74
2021/06/10 00:54:26;;;;;;;5.03;3.30;;;;;;;;;;741631;187;918110;-73
2021/06/10 00:56:52;;;;;;;5.10;3.10;;;;;;;;;;737051;187;918249;-74
2021/06/10 00:59:18;;;;;;;4.47;3.37;;;;;;;;;;743535;187;918537;-74
2021/06/10 01:01:43;;;;;;;4.73;2.63;;;;;;;;;;751651;184;815294;-74
2021/06/10 01:04:09;;;;;;;9.25;3.42;;;;;;;;;;743901;187;872213;-74
2021/06/10 01:06:35;;;;;;;5.00;3.55;;;;;;;;;;738123;187;1314772;-74
2021/06/10 01:09:04;;;;;;;4.90;3.47;;;;;;;;;;751197;187;815612;-74
2021/06/10 01:11:38;;;;;;;4.30;3.30;;;;;;;;;;751630;184;920509;-74
2021/06/10 01:14:14;;;;;;;4.77;3.37;;;;;;;;;;743236;186;919309;-74
2021/06/10 01:16:40;;;;;;;4.07;3.00;;;;;;;;;;745089;186;919038;-73
2021/06/10 01:19:06;;;;;;;4.27;3.57;;;;;;;;;;753175;186;920423;-74
2021/06/10 01:21:31;;;;;;;4.17;3.07;;;;;;;;;;739813;186;918364;-74
2021/06/10 01:24:02;;;;;;;4.57;3.10;;;;;;;;;;741343;186;916660;-74
2021/06/10 01:26:29;;;;;;;3.23;2.43;;;;;;;;;;741489;186;806761;-74
2021/06/10 01:28:55;;;;;;;5.53;3.43;;;;;;;;;;742813;186;814042;-74
2021/06/10 01:31:20;;;;;;;4.07;3.00;;;;;;;;;;739152;186;816261;-73
2021/06/10 01:33:47;;;;;;;10.53;3.87;;;;;;;;;;741925;187;921482;-74
2021/06/10 01:36:13;;;;;;;5.10;3.53;;;;;;;;;;754835;186;816034;-74
2021/06/10 01:38:39;;;;;;;5.65;4.43;;;;;;;;;;745504;186;918883;-74
2021/06/10 01:41:05;;;;;;;5.23;3.50;;;;;;;;;;742421;186;872142;-73
2021/06/10 01:43:31;;;;;;;5.03;3.30;;;;;;;;;;740404;187;919344;-75
2021/06/10 01:45:57;;;;;;;4.73;3.30;;;;;;;;;;745688;186;919091;-74
2021/06/10 01:48:23;;;;;;;4.45;3.20;;;;;;;;;;742491;187;917642;-74
2021/06/10 01:50:49;;;;;;;3.97;3.20;;;;;;;;;;740021;187;916783;-73
2021/06/10 01:53:14;;;;;;;4.43;2.90;;;;;;;;;;745747;187;817222;-73
2021/06/10 01:55:40;;;;;;;4.80;3.20;;;;;;;;;;741101;187;916482;-73
2021/06/10 01:58:06;;;;;;;4.60;3.60;;;;;;;;;;739321;187;918471;-74
2021/06/10 02:00:32;;;;;;;4.53;3.10;;;;;;;;;;750737;187;866349;-73
2021/06/10 02:02:58;;;;;;;5.70;3.40;;;;;;;;;;746646;187;816563;-74
2021/06/10 02:05:24;;;;;;;5.77;3.73;;;;;;;;;;746836;187;917449;-74
2021/06/10 02:07:49;;;;;;;5.05;3.80;;;;;;;;;;743543;187;918490;-74
2021/06/10 02:10:15;;;;;;;5.43;3.13;;;;;;;;;;737901;187;918106;-74
2021/06/10 02:12:43;;;;;;;6.90;3.50;;;;;;;;;;741520;187;920618;-74
2021/06/10 02:15:09;;;;;;;5.20;3.57;;;;;;;;;;738355;187;921514;-73
2021/06/10 02:17:35;;;;;;;4.28;3.58;;;;;;;;;;742057;187;919127;-74
2021/06/10 02:20:01;;;;;;;4.87;4.00;;;;;;;;;;743279;187;927588;-74
2021/06/10 02:22:27;;;;;;;5.12;3.65;;;;;;;;;;738939;187;912960;-73
2021/06/10 02:24:53;;;;;;;4.10;3.00;;;;;;;;;;748953;186;809389;-74
2021/06/10 02:27:19;;;;;;;4.20;2.93;;;;;;;;;;740258;186;911521;-74
2021/06/10 02:29:44;;;;;;;7.20;3.90;;;;;;;;;;739768;186;1116515;-74
2021/06/10 02:32:10;;;;;;;5.53;3.60;;;;;;;;;;746555;186;807615;-74
2021/06/10 02:34:36;;;;;;;5.07;3.60;;;;;;;;;;745416;186;912273;-73
2021/06/10 02:37:02;;;;;;;6.40;2.93;;;;;;;;;;740291;186;917949;-74
2021/06/10 02:39:28;;;;;;;4.60;3.70;;;;;;;;;;742513;186;919253;-74
2021/06/10 02:41:54;;;;;;;4.90;3.90;;;;;;;;;;754570;186;815752;-74
2021/06/10 02:44:20;;;;;;;6.03;3.63;;;;;;;;;;740491;186;918503;-74
2021/06/10 02:46:46;;;;;;;6.37;4.03;;;;;;;;;;739248;186;919437;-74
2021/06/10 02:49:12;;;;;;;6.40;3.63;;;;;;;;;;753344;186;816065;-74
2021/06/10 02:51:38;;;;;;;7.07;3.77;;;;;;;;;;743025;186;812536;-74
2021/06/10 02:54:04;;;;;;;4.40;3.30;;;;;;;;;;740353;186;938505;-74
2021/06/10 02:56:30;;;;;;;5.43;3.33;;;;;;;;;;742093;187;902084;-75
2021/06/10 02:58:56;;;;;;;4.40;3.43;;;;;;;;;;739560;187;918894;-73
2021/06/10 03:01:21;;;;;;;5.10;3.37;;;;;;;;;;740407;187;917770;-73
2021/06/10 03:03:47;;;;;;;5.60;3.87;;;;;;;;;;742755;187;959413;-74
2021/06/10 03:06:13;;;;;;;6.03;4.10;;;;;;;;;;746500;187;917361;-74
2021/06/10 03:08:39;;;;;;;5.67;4.43;;;;;;;;;;739554;187;918599;-74
2021/06/10 03:11:05;;;;;;;8.37;4.30;;;;;;;;;;737588;187;915993;-73
2021/06/10 03:13:31;;;;;;;9.30;4.33;;;;;;;;;;749526;187;915319;-73
2021/06/10 03:15:56;;;;;;;5.40;4.23;;;;;;;;;;740702;187;813391;-74
2021/06/10 03:18:22;;;;;;;5.83;3.90;;;;;;;;;;739234;187;922487;-74
2021/06/10 03:20:48;;;;;;;5.60;3.80;;;;;;;;;;741416;187;914614;-74
2021/06/10 03:23:14;;;;;;;6.33;4.30;;;;;;;;;;741794;187;807385;-74
2021/06/10 03:25:40;;;;;;;5.13;4.07;;;;;;;;;;743189;187;817481;-74
2021/06/10 03:28:06;;;;;;;6.70;4.80;;;;;;;;;;746882;187;819421;-74
2021/06/10 03:30:31;;;;;;;5.90;4.30;;;;;;;;;;741841;187;918108;-74
2021/06/10 03:32:57;;;;;;;6.10;4.57;;;;;;;;;;742945;187;919328;-74
2021/06/10 03:35:23;;;;;;;6.00;4.63;;;;;;;;;;744292;186;817059;-74
2021/06/10 03:37:49;;;;;;;5.60;4.60;;;;;;;;;;750304;186;918773;-74
2021/06/10 03:40:15;;;;;;;6.23;4.70;;;;;;;;;;743370;186;916964;-74
2021/06/10 03:42:41;;;;;;;10.00;6.20;;;;;;;;;;743914;186;918913;-73
2021/06/10 03:45:07;;;;;;;6.40;5.10;;;;;;;;;;747185;186;816308;-74
2021/06/10 03:47:33;;;;;;;8.10;5.03;;;;;;;;;;744062;186;819615;-74
2021/06/10 03:49:59;;;;;;;7.40;5.00;;;;;;;;;;743020;186;918470;-74
2021/06/10 03:52:25;;;;;;;7.60;5.00;;;;;;;;;;747687;186;914596;-73
2021/06/10 03:54:51;;;;;;;8.17;5.13;;;;;;;;;;740709;186;913769;-74
2021/06/10 03:57:17;;;;;;;4.47;3.70;;;;;;;;;;745363;186;914936;-74
2021/06/10 03:59:43;;;;;;;6.10;4.70;;;;;;;;;;742366;186;916072;-74
2021/06/10 04:02:09;;;;;;;7.07;4.90;;;;;;;;;;749999;187;813143;-74
2021/06/10 04:04:34;;;;;;;6.93;5.10;;;;;;;;;;746557;186;882266;-73
2021/06/10 04:07:00;;;;;;;8.10;4.87;;;;;;;;;;744589;186;909104;-74
2021/06/10 04:09:26;;;;;;;9.57;5.57;;;;;;;;;;752814;186;739145;-73
2021/06/10 04:11:52;;;;;;;9.63;6.43;;;;;;;;;;744834;187;816399;-74
2021/06/10 04:14:18;;;;;;;9.43;5.70;;;;;;;;;;742826;187;917936;-73
2021/06/10 04:16:45;;;;;;;14.30;6.33;;;;;;;;;;748230;187;815079;-74
2021/06/10 04:19:09;;;;;;;9.50;6.27;;;;;;;;;;743486;187;815821;-74
2021/06/10 04:21:35;;;;;;;12.13;6.30;;;;;;;;;;742145;187;924434;-74
2021/06/10 04:24:02;;;;;;;12.55;6.37;;;;;;;;;;744528;187;915498;-74
2021/06/10 04:26:27;;;;;;;11.23;6.90;;;;;;;;;;746745;184;918383;-74
2021/06/10 04:28:53;;;;;;;9.77;6.80;;;;;;;;;;742236;187;918616;-74
2021/06/10 04:31:19;;;;;;;13.07;7.73;;;;;;;;;;738770;187;918147;-74
2021/06/10 04:33:45;;;;;;;13.80;8.60;;;;;;;;;;746837;187;917646;-74
2021/06/10 04:36:11;;;;;;;14.95;9.05;;;;;;;;;;739427;187;918128;-74
2021/06/10 04:38:37;;;;;;;17.77;10.17;;;;;;;;;;741851;187;918453;-74
2021/06/10 04:41:02;;;;;;;18.40;10.80;;;;;;;;;;738514;187;917706;-74
2021/06/10 04:43:28;;;;;;;17.13;11.67;;;;;;;;;;742892;187;918561;-74
2021/06/10 04:45:56;;;;;;;25.47;13.87;;;;;;;;;;747466;186;816784;-74
2021/06/10 04:48:20;;;;;;;24.73;17.20;;;;;;;;;;748104;186;814674;-74
2021/06/10 04:50:46;;;;;;;29.77;16.90;;;;;;;;;;742949;186;916333;-74
2021/06/10 04:53:13;;;;;;;24.35;17.10;;;;;;;;;;743215;186;920572;-74
2021/06/10 04:55:39;;;;;;;27.80;17.00;;;;;;;;;;746433;186;917400;-74
2021/06/10 04:58:04;;;;;;;27.00;15.20;;;;;;;;;;748832;186;763170;-74
2021/06/10 05:00:30;;;;;;;22.13;13.45;;;;;;;;;;738468;186;919328;-75
2021/06/10 05:02:55;;;;;;;17.90;13.30;;;;;;;;;;748670;186;816798;-75
2021/06/10 05:05:21;;;;;;;19.33;10.87;;;;;;;;;;747555;186;916483;-75
2021/06/10 05:07:47;;;;;;;13.70;11.03;;;;;;;;;;743441;187;815772;-74
2021/06/10 05:10:13;;;;;;;11.25;9.93;;;;;;;;;;743681;186;917783;-75
2021/06/10 05:12:39;;;;;;;12.77;8.40;;;;;;;;;;751204;186;812467;-75
2021/06/10 05:15:05;;;;;;;10.90;8.57;;;;;;;;;;741741;186;926465;-75
2021/06/10 05:17:31;;;;;;;12.37;7.50;;;;;;;;;;743956;186;916171;-75
2021/06/10 05:19:57;;;;;;;19.73;8.45;;;;;;;;;;739822;187;918771;-74
2021/06/10 05:22:23;;;;;;;10.27;7.50;;;;;;;;;;737347;187;918818;-73
2021/06/10 05:24:49;;;;;;;10.45;8.23;;;;;;;;;;740374;187;920918;-74
2021/06/10 05:27:14;;;;;;;9.57;6.80;;;;;;;;;;744416;187;813313;-75
2021/06/10 05:29:40;;;;;;;10.53;6.90;;;;;;;;;;743371;187;919009;-74
2021/06/10 05:32:07;;;;;;;11.83;6.57;;;;;;;;;;740323;187;920591;-75
2021/06/10 05:34:34;;;;;;;10.03;6.20;;;;;;;;;;741536;187;1031710;-74
2021/06/10 05:37:00;;;;;;;9.43;6.10;;;;;;;;;;748559;187;650068;-75
2021/06/10 05:39:26;;;;;;;10.13;6.10;;;;;;;;;;741766;187;918559;-75
2021/06/10 05:41:54;;;;;;;13.23;6.00;;;;;;;;;;738596;187;1735154;-75
2021/06/10 05:44:19;;;;;;;12.93;5.90;;;;;;;;;;746217;187;919301;-74
2021/06/10 05:46:46;;;;;;;7.20;5.10;;;;;;;;;;752575;187;932726;-74
2021/06/10 05:49:11;;;;;;;12.20;6.33;;;;;;;;;;740812;187;921263;-74
2021/06/10 05:51:37;;;;;;;7.85;5.50;;;;;;;;;;744508;187;919937;-75
2021/06/10 05:54:03;;;;;;;7.00;4.97;;;;;;;;;;749500;187;918760;-74
2021/06/10 05:56:29;;;;;;;7.60;5.47;;;;;;;;;;742363;187;936604;-74
2021/06/10 05:58:55;;;;;;;11.10;6.87;;;;;;;;;;740694;186;918736;-75
2021/06/10 06:01:20;;;;;;;8.23;6.33;;;;;;;;;;753216;186;914049;-75
2021/06/10 06:03:46;;;;;;;17.07;7.97;;;;;;;;;;746017;186;640494;-75
2021/06/10 06:06:15;;;;;;;16.63;8.50;;;;;;;;;;745073;186;914590;-75
2021/06/10 06:08:38;;;;;;;10.60;7.80;;;;;;;;;;743374;186;912910;-76
2021/06/10 06:11:04;;;;;;;8.53;6.00;;;;;;;;;;749305;184;811565;-74
2021/06/10 06:13:44;;;;;;;9.53;5.90;;;;;;;;;;741931;186;1029753;-74
2021/06/10 06:15:57;;;;;;;7.23;6.17;;;;;;;;;;740143;187;915761;-75
2021/06/10 06:18:23;;;;;;;11.10;4.90;;;;;;;;;;750237;186;916786;-75
2021/06/10 06:20:49;;;;;;;8.80;5.17;;;;;;;;;;744873;186;816886;-74
2021/06/10 06:23:15;;;;;;;8.80;5.20;;;;;;;;;;741414;187;915615;-75
2021/06/10 06:25:41;;;;;;;9.80;5.00;;;;;;;;;;746264;186;747295;-75
2021/06/10 06:28:07;;;;;;;8.50;4.30;;;;;;;;;;742900;186;919340;-75
2021/06/10 06:30:33;;;;;;;7.33;3.83;;;;;;;;;;739076;186;918697;-73
2021/06/10 06:32:59;;;;;;;7.80;4.47;;;;;;;;;;740265;186;1117685;-74
2021/06/10 06:35:24;;;;;;;5.53;4.90;;;;;;;;;;744421;187;934334;-75
2021/06/10 06:37:50;;;;;;;9.40;4.40;;;;;;;;;;741450;187;918868;-75
2021/06/10 06:40:19;;;;;;;8.80;5.13;;;;;;;;;;743825;187;919345;-76
2021/06/10 06:42:42;;;;;;;10.80;4.60;;;;;;;;;;748029;187;1155769;-75
2021/06/10 06:45:08;;;;;;;6.80;4.30;;;;;;;;;;741552;187;919033;-76
2021/06/10 06:47:34;;;;;;;13.47;4.60;;;;;;;;;;739600;187;919903;-76
2021/06/10 06:50:00;;;;;;;5.90;4.10;;;;;;;;;;751614;187;816596;-76
2021/06/10 06:52:26;;;;;;;5.40;4.20;;;;;;;;;;741214;187;816326;-76
2021/06/10 06:54:52;;;;;;;7.37;4.77;;;;;;;;;;746733;187;813736;-75
2021/06/10 06:57:17;;;;;;;10.23;4.50;;;;;;;;;;751072;187;830958;-75
2021/06/10 06:59:44;;;;;;;7.20;3.60;;;;;;;;;;739396;187;918290;-76
2021/06/10 07:02:09;;;;;;;8.43;4.00;;;;;;;;;;737399;187;918229;-76
2021/06/10 07:04:35;;;;;;;6.73;4.50;;;;;;;;;;740314;187;918979;-77
2021/06/10 07:07:01;;;;;;;4.90;3.70;;;;;;;;;;753522;187;915044;-76
2021/06/10 07:09:27;;;;;;;7.73;4.47;;;;;;;;;;742158;186;917712;-75
2021/06/10 07:11:52;;;;;;;8.02;4.40;;;;;;;;;;742124;186;926266;-76
2021/06/10 07:14:18;;;;;;;7.23;4.37;;;;;;;;;;747249;186;919011;-76
2021/06/10 07:16:44;;;;;;;11.03;4.20;;;;;;;;;;742061;186;815771;-76
2021/06/10 07:19:10;;;;;;;6.40;4.53;;;;;;;;;;741874;186;917912;-76
2021/06/10 07:21:42;;;;;;;5.90;4.50;;;;;;;;;;750627;186;928569;-76
2021/06/10 07:24:08;;;;;;;9.53;4.90;;;;;;;;;;746822;186;918454;-76
2021/06/10 07:26:33;;;;;;;9.00;3.70;;;;;;;;;;744696;186;916804;-76
2021/06/10 07:28:59;;;;;;;5.23;4.10;;;;;;;;;;742689;186;917604;-76
2021/06/10 07:31:25;;;;;;;11.70;4.75;;;;;;;;;;748037;186;918756;-76
2021/06/10 07:33:51;;;;;;;10.83;4.67;;;;;;;;;;744055;186;917064;-76
2021/06/10 07:36:17;;;;;;;6.07;4.20;;;;;;;;;;741580;186;921457;-77
2021/06/10 07:38:43;;;;;;;7.10;4.27;;;;;;;;;;745036;186;919140;-77
2021/06/10 07:41:08;;;;;;;8.83;3.60;;;;;;;;;;745278;186;919450;-76
2021/06/10 07:43:34;;;;;;;5.15;3.75;;;;;;;;;;744705;186;822234;-77
2021/06/10 07:46:01;;;;;;;5.57;4.00;;;;;;;;;;745978;186;919422;-77
2021/06/10 07:48:29;;;;;;;9.43;3.77;;;;;;;;;;742865;187;818375;-76
2021/06/10 07:50:52;;;;;;;5.70;4.23;;;;;;;;;;737850;187;917392;-78
2021/06/10 07:53:18;;;;;;;5.33;3.17;;;;;;;;;;745818;187;816336;-76
2021/06/10 07:55:43;;;;;;;6.60;4.10;;;;;;;;;;745659;187;1168902;-76
2021/06/10 07:58:09;;;;;;;5.17;3.60;;;;;;;;;;744888;187;917996;-77
2021/06/10 08:00:35;;;;;;;5.05;3.95;;;;;;;;;;739869;187;915745;-78
2021/06/10 08:03:01;;;;;;;4.20;3.30;;;;;;;;;;746110;187;851183;-77
2021/06/10 08:05:27;;;;;;;5.00;3.93;;;;;;;;;;742355;187;857440;-76
2021/06/10 08:07:54;;;;;;;5.77;3.87;;;;;;;;;;742467;187;816997;-76
2021/06/10 08:10:19;;;;;;;6.50;3.67;;;;;;;;;;745301;187;818785;-76
2021/06/10 08:12:45;;;;;;;14.60;3.70;;;;;;;;;;743122;187;811043;-76
2021/06/10 08:15:11;;;;;;;5.83;3.30;;;;;;;;;;740297;187;919533;-77
2021/06/10 08:17:37;;;;;;;4.10;2.87;;;;;;;;;;741146;187;946036;-77
2021/06/10 08:20:03;;;;;;;7.00;2.80;;;;;;;;;;752576;184;669331;-78
2021/06/10 08:22:29;;;;;;;5.13;3.33;;;;;;;;;;743961;186;846545;-76
2021/06/10 08:24:55;;;;;;;5.30;2.90;;;;;;;;;;744034;186;918291;-77
2021/06/10 08:27:20;;;;;;;7.77;2.97;;;;;;;;;;747662;186;1007002;-76
2021/06/10 08:29:47;;;;;;;7.30;2.63;;;;;;;;;;743876;186;815300;-77
2021/06/10 08:32:13;;;;;;;3.92;2.50;;;;;;;;;;737757;186;1193554;-77
2021/06/10 08:34:39;;;;;;;5.13;3.00;;;;;;;;;;744602;186;906581;-76
2021/06/10 08:37:05;;;;;;;8.10;2.83;;;;;;;;;;745867;186;896859;-76
2021/06/10 08:39:30;;;;;;;4.77;2.37;;;;;;;;;;741893;186;910825;-76
2021/06/10 08:41:57;;;;;;;4.32;2.70;;;;;;;;;;740889;187;925299;-77
2021/06/10 08:44:23;;;;;;;3.13;2.20;;;;;;;;;;743599;186;824794;-77
2021/06/10 08:46:49;;;;;;;5.07;2.00;;;;;;;;;;745997;186;884839;-76
2021/06/10 08:49:15;;;;;;;3.93;1.70;;;;;;;;;;747113;186;915687;-77
2021/06/10 08:51:41;;;;;;;6.70;2.40;;;;;;;;;;747111;187;793451;-77
2021/06/10 08:54:07;;;;;;;3.90;2.27;;;;;;;;;;744209;186;784605;-77
2021/06/10 08:56:33;;;;;;;6.03;1.80;;;;;;;;;;747381;186;916059;-77
2021/06/10 08:58:58;;;;;;;4.50;1.60;;;;;;;;;;744198;187;933282;-77
2021/06/10 09:01:24;;;;;;;2.17;1.30;;;;;;;;;;741086;187;918332;-77
2021/06/10 09:03:50;;;;;;;5.90;1.83;;;;;;;;;;738611;187;918617;-76
2021/06/10 09:06:17;;;;;;;5.93;2.30;;;;;;;;;;744213;187;937418;-75
2021/06/10 09:08:43;;;;;;;2.93;2.17;;;;;;;;;;741707;187;897175;-76
2021/06/10 09:11:16;;;;;;;7.17;1.67;;;;;;;;;;736626;187;918876;-78
2021/06/10 09:13:45;;;;;;;2.70;2.00;;;;;;;;;;738454;187;1021815;-77
2021/06/10 09:16:17;;;;;;;3.60;1.63;;;;;;;;;;746687;187;814507;-76
2021/06/10 09:18:47;;;;;;;3.73;2.13;;;;;;;;;;749038;187;815794;-78
2021/06/10 09:21:13;;;;;;;3.00;2.10;;;;;;;;;;740772;187;992804;-77
2021/06/10 09:23:39;;;;;;;4.23;3.00;;;;;;;;;;741708;187;918912;-79
2021/06/10 09:26:07;;;;;;;3.10;2.10;;;;;;;;;;747304;187;914162;-77
2021/06/10 09:28:31;;;;;;;3.00;2.00;;;;;;;;;;746004;187;914812;-77
2021/06/10 09:30:58;;;;;;;5.07;2.28;;;;;;;;;;740354;187;918065;-75
2021/06/10 09:33:22;;;;;;;5.60;2.17;;;;;;;;;;742500;186;913491;-76
2021/06/10 09:35:48;;;;;;;3.20;2.20;;;;;;;;;;745585;184;917857;-78
2021/06/10 09:38:16;;;;;;;4.70;2.57;;;;;;;;;;744386;186;917031;-76
2021/06/10 09:40:41;;;;;;;6.97;3.50;;;;;;;;;;742124;186;816178;-77
2021/06/10 09:43:07;;;;;;;4.87;2.23;;;;;;;;;;743385;186;817309;-77
2021/06/10 09:45:32;;;;;;;6.90;3.30;;;;;;;;;;746576;186;714195;-76
2021/06/10 09:48:00;;;;;;;4.53;2.33;;;;;;;;;;742494;186;915540;-77
2021/06/10 09:50:27;;;;;;;8.87;2.57;;;;;;;;;;743141;186;1020513;-77
2021/06/10 09:52:51;;;;;;;5.00;2.37;;;;;;;;;;740318;186;917824;-79
2021/06/10 09:55:35;;;;;;;3.47;2.00;;;;;;;;;;740562;186;920172;-77
2021/06/10 09:58:05;;;;;;;4.37;2.47;;;;;;;;;;733923;186;1021502;-78
2021/06/10 10:00:31;;;;;;;4.35;1.83;;;;;;;;;;744184;186;919003;-78
2021/06/10 10:02:56;;;;;;;2.90;1.80;;;;;;;;;;745632;186;714047;-77
2021/06/10 10:05:24;;;;;;;3.40;2.10;;;;;;;;;;740460;186;919503;-78
2021/06/10 10:07:48;;;;;;;5.73;2.23;;;;;;;;;;743394;186;916392;-75
2021/06/10 10:10:15;;;;;;;3.57;2.47;;;;;;;;;;745973;187;918983;-77
2021/06/10 10:12:43;;;;;;;2.80;2.07;;;;;;;;;;739151;187;1021243;-77
2021/06/10 10:15:07;;;;;;;5.57;3.13;;;;;;;;;;742413;187;815473;-79
2021/06/10 10:17:33;;;;;;;6.23;2.50;;;;;;;;;;747280;187;815919;-76
2021/06/10 10:19:58;;;;;;;4.10;2.23;;;;;;;;;;743827;187;918397;-77
2021/06/10 10:22:24;;;;;;;6.30;2.00;;;;;;;;;;739372;187;918564;-77
2021/06/10 10:24:53;;;;;;;2.60;1.90;;;;;;;;;;738103;187;1633033;-76
2021/06/10 10:27:16;;;;;;;6.77;2.23;;;;;;;;;;743713;187;918388;-78
2021/06/10 10:29:43;;;;;;;10.07;2.90;;;;;;;;;;742027;187;919174;-77
2021/06/10 10:32:08;;;;;;;9.60;2.80;;;;;;;;;;738432;187;917602;-78
2021/06/10 10:34:35;;;;;;;2.90;2.20;;;;;;;;;;744621;187;1016897;-77
2021/06/10 10:37:01;;;;;;;6.60;2.90;;;;;;;;;;738898;187;917952;-75
2021/06/10 10:39:28;;;;;;;12.07;3.10;;;;;;;;;;740484;187;918848;-76
2021/06/10 10:41:54;;;;;;;18.70;4.40;;;;;;;;;;752840;187;919320;-76
2021/06/10 10:44:24;;;;;;;6.13;2.43;;;;;;;;;;742085;185;919129;-77
2021/06/10 10:46:54;;;;;;;6.20;2.87;;;;;;;;;;740783;186;921276;-77
2021/06/10 10:49:20;;;;;;;5.07;2.30;;;;;;;;;;739874;186;918768;-79
2021/06/10 10:51:46;;;;;;;13.03;3.10;;;;;;;;;;748590;186;816183;-77
2021/06/10 10:54:17;;;;;;;7.50;3.40;;;;;;;;;;741549;186;1020270;-76
2021/06/10 10:56:43;;;;;;;4.37;2.33;;;;;;;;;;742297;186;918227;-77
2021/06/10 10:59:10;;;;;;;26.57;4.40;;;;;;;;;;738195;186;919053;-76
2021/06/10 11:01:36;;;;;;;78.57;8.80;;;;;;;;;;751787;186;764754;-79
2021/06/10 11:04:02;;;;;;;3.43;2.23;;;;;;;;;;743416;186;918752;-78
2021/06/10 11:06:31;;;;;;;106.57;11.90;;;;;;;;;;742249;187;918568;-77
2021/06/10 11:08:59;;;;;;;12.87;3.03;;;;;;;;;;748279;186;815916;-76
2021/06/10 11:11:31;;;;;;;4.07;1.90;;;;;;;;;;745167;186;917697;-77
2021/06/10 11:13:57;;;;;;;3.67;2.00;;;;;;;;;;736558;186;918497;-78
2021/06/10 11:16:23;;;;;;;4.37;1.83;;;;;;;;;;742271;186;919046;-77
2021/06/10 11:18:49;;;;;;;5.27;2.50;;;;;;;;;;749051;186;861408;-77
2021/06/10 11:21:16;;;;;;;4.55;2.30;;;;;;;;;;734579;187;1696174;-78
2021/06/10 11:23:40;;;;;;;12.70;2.97;;;;;;;;;;738769;187;854463;-77
2021/06/10 11:26:07;;;;;;;2.83;2.17;;;;;;;;;;741307;187;918226;-76
2021/06/10 11:28:36;;;;;;;4.47;2.40;;;;;;;;;;746181;187;958593;-77
2021/06/10 11:31:07;;;;;;;5.17;2.70;;;;;;;;;;734356;187;1214585;-79
2021/06/10 11:33:34;;;;;;;9.87;2.77;;;;;;;;;;745505;187;917595;-77
2021/06/10 11:36:01;;;;;;;7.07;2.80;;;;;;;;;;743003;187;917593;-77
2021/06/10 11:38:27;;;;;;;6.67;2.80;;;;;;;;;;749410;187;1006343;-78
2021/06/10 11:41:08;;;;;;;5.47;2.23;;;;;;;;;;741102;187;920300;-77
2021/06/10 11:43:34;;;;;;;4.00;2.57;;;;;;;;;;749512;187;902225;-78
2021/06/10 11:46:00;;;;;;;3.20;2.50;;;;;;;;;;742253;187;919313;-78
2021/06/10 11:48:32;;;;;;;5.93;2.90;;;;;;;;;;747969;187;905157;-78
2021/06/10 11:50:58;;;;;;;7.13;3.43;;;;;;;;;;740235;187;918177;-78
2021/06/10 11:53:24;;;;;;;5.53;2.53;;;;;;;;;;738765;187;939571;-77
2021/06/10 11:55:50;;;;;;;5.40;2.60;;;;;;;;;;749450;185;801788;-77
2021/06/10 11:58:16;;;;;;;3.33;2.67;;;;;;;;;;741331;186;906845;-79
2021/06/10 12:00:41;;;;;;;4.47;2.83;;;;;;;;;;741185;186;1000481;-78
2021/06/10 12:03:09;;;;;;;3.83;2.87;;;;;;;;;;741999;186;869337;-79
2021/06/10 12:05:36;;;;;;;7.53;2.50;;;;;;;;;;749365;184;906651;-78
2021/06/10 12:08:05;;;;;;;5.23;2.93;;;;;;;;;;746126;186;804606;-77
2021/06/10 12:10:31;;;;;;;9.43;3.40;;;;;;;;;;739812;186;908530;-77
2021/06/10 12:12:57;;;;;;;5.47;3.10;;;;;;;;;;746510;186;762014;-77
2021/06/10 12:15:33;;;;;;;3.00;2.10;;;;;;;;;;746342;186;720049;-79
2021/06/10 12:17:57;;;;;;;3.70;2.77;;;;;;;;;;746576;186;803510;-77
2021/06/10 12:20:23;;;;;;;10.83;3.47;;;;;;;;;;743593;186;637591;-77
2021/06/10 12:22:49;;;;;;;3.60;2.03;;;;;;;;;;747896;187;804943;-78
2021/06/10 12:25:15;;;;;;;5.10;2.80;;;;;;;;;;741957;186;903318;-77
2021/06/10 12:27:41;;;;;;;3.93;2.87;;;;;;;;;;741518;186;911446;-77
2021/06/10 12:30:21;;;;;;;5.60;2.63;;;;;;;;;;750395;186;632793;-78
2021/06/10 12:32:47;;;;;;;7.27;3.33;;;;;;;;;;747322;187;618445;-78
2021/06/10 12:35:14;;;;;;;7.70;2.97;;;;;;;;;;741687;187;638397;-78
2021/06/10 12:37:40;;;;;;;6.63;2.70;;;;;;;;;;749009;187;625098;-77
2021/06/10 12:40:07;;;;;;;3.37;2.47;;;;;;;;;;748778;187;642299;-77
2021/06/10 12:42:32;;;;;;;5.47;2.70;;;;;;;;;;742714;187;812276;-77
2021/06/10 12:44:58;;;;;;;3.00;2.40;;;;;;;;;;739264;187;1199491;-77
2021/06/10 12:47:29;;;;;;;3.87;2.97;;;;;;;;;;740895;187;1045397;-77
2021/06/10 12:49:55;;;;;;;3.10;2.53;;;;;;;;;;749212;187;812745;-78
2021/06/10 12:52:21;;;;;;;3.50;2.73;;;;;;;;;;744640;187;645559;-81
2021/06/10 12:54:47;;;;;;;5.35;2.60;;;;;;;;;;740580;187;920475;-78
2021/06/10 12:57:18;;;;;;;5.30;2.93;;;;;;;;;;745591;187;914879;-78
2021/06/10 12:59:45;;;;;;;5.07;2.60;;;;;;;;;;745259;187;988797;-78
2021/06/10 13:02:17;;;;;;;8.90;2.90;;;;;;;;;;744073;187;918153;-78
2021/06/10 13:05:01;;;;;;;4.40;2.87;;;;;;;;;;741381;187;990904;-78
2021/06/10 13:07:33;;;;;;;21.07;3.73;;;;;;;;;;744218;186;1123569;-77
2021/06/10 13:09:59;;;;;;;21.13;4.10;;;;;;;;;;743540;186;914622;-80
2021/06/10 13:12:25;;;;;;;29.53;5.20;;;;;;;;;;749112;186;897586;-78
2021/06/10 13:14:57;;;;;;;13.27;4.10;;;;;;;;;;746120;186;628680;-77
2021/06/10 13:17:22;;;;;;;10.30;5.97;;;;;;;;;;742541;186;806415;-77
2021/06/10 13:19:48;;;;;;;17.77;4.83;;;;;;;;;;741667;186;1000470;-79
2021/06/10 13:22:14;;;;;;;21.63;5.33;;;;;;;;;;749213;186;1091909;-79
2021/06/10 13:24:41;;;;;;;10.10;4.30;;;;;;;;;;741284;186;994718;-79
2021/06/10 13:27:07;;;;;;;6.27;4.20;;;;;;;;;;740352;187;913942;-79
2021/06/10 13:29:32;;;;;;;5.90;3.90;;;;;;;;;;744057;187;905540;-77
2021/06/10 13:31:58;;;;;;;6.93;3.53;;;;;;;;;;740152;186;913315;-79
2021/06/10 13:34:31;;;;;;;5.03;3.93;;;;;;;;;;740698;186;913717;-77
2021/06/10 13:36:55;;;;;;;10.43;3.97;;;;;;;;;;747355;187;806909;-78
2021/06/10 13:39:18;;;;;;;11.90;4.70;;;;;;;;;;742653;186;627344;-76
2021/06/10 13:41:44;;;;;;;6.07;3.20;;;;;;;;;;747716;186;624676;-78
2021/06/10 13:44:10;;;;;;;7.60;4.90;;;;;;;;;;741691;186;816300;-79
2021/06/10 13:46:36;;;;;;;9.63;4.20;;;;;;;;;;745070;187;913371;-79
2021/06/10 13:49:02;;;;;;;4.50;3.53;;;;;;;;;;740170;187;918346;-77
2021/06/10 13:51:28;;;;;;;4.07;2.77;;;;;;;;;;740602;187;775084;-75
2021/06/10 13:53:53;;;;;;;6.50;3.30;;;;;;;;;;744542;187;816412;-78
2021/06/10 13:56:20;;;;;;;5.90;3.22;;;;;;;;;;747281;187;910394;-80
2021/06/10 13:58:45;;;;;;;5.37;3.03;;;;;;;;;;746093;187;915627;-78
2021/06/10 14:01:11;;;;;;;5.40;3.30;;;;;;;;;;749920;187;1017794;-78
2021/06/10 14:03:37;;;;;;;3.57;2.77;;;;;;;;;;742327;187;908831;-80
2021/06/10 14:06:03;;;;;;;8.73;3.67;;;;;;;;;;742846;187;910420;-77
2021/06/10 14:08:30;;;;;;;5.53;3.33;;;;;;;;;;742706;187;806006;-78
2021/06/10 14:10:54;;;;;;;3.90;2.70;;;;;;;;;;748362;186;911194;-78
2021/06/10 14:13:20;;;;;;;3.77;2.77;;;;;;;;;;743906;187;910460;-77
2021/06/10 14:15:46;;;;;;;3.70;2.70;;;;;;;;;;745432;187;918592;-77
2021/06/10 14:18:12;;;;;;;6.82;3.05;;;;;;;;;;747256;185;935807;-77
2021/06/10 14:20:38;;;;;;;9.13;3.50;;;;;;;;;;745498;186;945623;-77